Fraser, New York
Current Conditions -  °F | °C
As of 3:35 PM on Thursday 29 Jan 2015 (Local Time) from KMSV Reporting Station
Few Clouds Few Clouds  
Wind Chill: 15°   Ceiling: Unl
Heat Index: 27°   Visibility: 10mi
Dew Point:   Wind: 14mph
Humidity: 43%   Direction: 130°SE
Pressure: 30.02"   Gusts: NA
Location:  42.3065°N, 74.9298°W
Report Text: KMSV 292035Z AUTO 13012KT 10SM FEW060 M03/M14 A3002 RMK AO1
Loading
Personal Weather Stations






























Interactive Weather Map New forecast layout! Learn more

10-Day Weather Forecast

Advertisements
Track Severe Weather on mobile